Time;durP1;ratioP1;P1;durP2;ratioP2;P2;SDS_P1;SDS_P2;PMS_P1;PMS_P2;Temp;Humidity;BMP_temperature;BMP_pressure;BME280_temperature;BME280_humidity;BME280_pressure;Samples;Min_cycle;Max_cycle;Signal;HPM_P1;HPM_P2
2024/02/26 00:02:07;;;;;;;;;;;;;;;2.49;100.00;93968.91;10362802;28;2058;-63
2024/02/26 00:07:10;;;;;;;;;;;;;;;2.39;100.00;93967.06;10356128;28;2139;-64
2024/02/26 00:12:13;;;;;;;;;;;;;;;2.40;100.00;93955.38;10349796;28;1950;-63
2024/02/26 00:17:15;;;;;;;;;;;;;;;2.35;100.00;93958.81;10354141;28;2041;-64
2024/02/26 00:22:18;;;;;;;;;;;;;;;2.22;100.00;93959.34;10361207;28;2194;-63
2024/02/26 00:27:20;;;;;;;;;;;;;;;2.29;100.00;93951.13;10362819;28;1996;-63
2024/02/26 00:32:23;;;;;;;;;;;;;;;2.15;100.00;93953.53;10358447;28;2431;-63
2024/02/26 00:37:25;;;;;;;;;;;;;;;2.10;100.00;93946.41;10351364;28;2023;-63
2024/02/26 00:42:28;;;;;;;;;;;;;;;2.07;100.00;93941.59;10347510;28;2255;-64
2024/02/26 00:47:30;;;;;;;;;;;;;;;2.06;100.00;93947.97;10352033;28;2168;-64
2024/02/26 00:52:33;;;;;;;;;;;;;;;2.04;100.00;93938.72;10354461;28;2086;-63
2024/02/26 00:57:36;;;;;;;;;;;;;;;1.98;100.00;93929.16;10351567;28;2244;-62
2024/02/26 01:02:41;;;;;;;;;;;;;;;1.97;100.00;93935.50;10351700;28;1920;-63
2024/02/26 01:07:44;;;;;;;;;;;;;;;1.95;100.00;93933.13;10358309;28;1866;-63
2024/02/26 01:12:47;;;;;;;;;;;;;;;1.99;100.00;93931.53;10352272;28;2189;-62
2024/02/26 01:17:51;;;;;;;;;;;;;;;1.88;100.00;93937.91;10353449;28;2426;-62
2024/02/26 01:22:54;;;;;;;;;;;;;;;1.82;100.00;93929.13;10354284;28;1899;-62
2024/02/26 01:27:57;;;;;;;;;;;;;;;1.82;100.00;93936.28;10352062;28;2109;-63
2024/02/26 01:32:59;;;;;;;;;;;;;;;1.76;100.00;93929.41;10366558;28;2052;-63
2024/02/26 01:38:02;;;;;;;;;;;;;;;1.78;100.00;93930.75;10355943;28;1960;-64
2024/02/26 01:43:05;;;;;;;;;;;;;;;1.89;100.00;93923.59;10362528;28;2061;-63
2024/02/26 01:48:07;;;;;;;;;;;;;;;1.87;100.00;93918.56;10360240;28;1955;-62
2024/02/26 01:53:10;;;;;;;;;;;;;;;1.78;100.00;93924.63;10355235;28;2223;-62
2024/02/26 01:58:14;;;;;;;;;;;;;;;1.78;100.00;93924.63;10351820;28;2584;-64
2024/02/26 02:03:17;;;;;;;;;;;;;;;1.82;100.00;93909.81;10364342;28;2086;-62
2024/02/26 02:08:21;;;;;;;;;;;;;;;1.80;100.00;93906.63;10354428;28;1966;-63
2024/02/26 02:13:23;;;;;;;;;;;;;;;1.74;100.00;93907.69;10350583;28;1982;-62
2024/02/26 02:18:26;;;;;;;;;;;;;;;1.77;100.00;93901.84;10356611;28;1975;-63
2024/02/26 02:23:29;;;;;;;;;;;;;;;1.74;100.00;93897.09;10350064;28;2002;-62
2024/02/26 02:28:31;;;;;;;;;;;;;;;1.69;100.00;93894.44;10371404;28;2096;-63
2024/02/26 02:33:34;;;;;;;;;;;;;;;1.61;100.00;93898.41;10352843;28;1998;-64
2024/02/26 02:38:37;;;;;;;;;;;;;;;1.63;100.00;93897.06;10350606;28;2422;-62
2024/02/26 02:43:40;;;;;;;;;;;;;;;1.69;100.00;93895.22;10349098;28;2138;-64
2024/02/26 02:48:44;;;;;;;;;;;;;;;1.68;100.00;93904.25;10353922;28;1932;-63
2024/02/26 02:53:47;;;;;;;;;;;;;;;1.57;100.00;93906.06;10356095;28;2023;-64
2024/02/26 02:58:50;;;;;;;;;;;;;;;1.59;100.00;93903.97;10369836;28;2129;-64
2024/02/26 03:03:53;;;;;;;;;;;;;;;1.50;100.00;93908.19;10351151;28;1929;-63
2024/02/26 03:08:56;;;;;;;;;;;;;;;1.53;100.00;93891.00;10364150;28;1951;-63
2024/02/26 03:14:00;;;;;;;;;;;;;;;1.49;100.00;93884.63;10358003;28;1990;-66
2024/02/26 03:19:03;;;;;;;;;;;;;;;1.47;100.00;93876.94;10360468;28;2467;-63
2024/02/26 03:24:06;;;;;;;;;;;;;;;1.60;100.00;93870.34;10357857;28;2262;-63
2024/02/26 03:29:08;;;;;;;;;;;;;;;1.70;100.00;93882.78;10350632;28;2143;-63
2024/02/26 03:34:13;;;;;;;;;;;;;;;1.75;100.00;93888.09;10368296;28;2007;-64
2024/02/26 03:39:16;;;;;;;;;;;;;;;1.88;100.00;93887.56;10352792;28;1943;-63
2024/02/26 03:44:20;;;;;;;;;;;;;;;1.90;100.00;93888.06;10356455;28;2094;-62
2024/02/26 03:49:23;;;;;;;;;;;;;;;1.88;100.00;93882.25;10358505;28;1986;-62
2024/02/26 03:54:26;;;;;;;;;;;;;;;1.82;100.00;93878.81;10363122;28;2050;-64
2024/02/26 03:59:28;;;;;;;;;;;;;;;1.82;100.00;93880.66;10364353;28;2097;-61
2024/02/26 04:04:31;;;;;;;;;;;;;;;1.90;100.00;93874.81;10361127;28;2203;-62
2024/02/26 04:09:34;;;;;;;;;;;;;;;2.02;100.00;93878.00;10358931;28;2645;-65
2024/02/26 04:14:37;;;;;;;;;;;;;;;2.04;100.00;93870.59;10358238;28;2096;-64
2024/02/26 04:19:40;;;;;;;;;;;;;;;2.11;100.00;93865.81;10357577;28;2130;-63
2024/02/26 04:24:43;;;;;;;;;;;;;;;2.12;100.00;93872.69;10356499;28;2042;-63
2024/02/26 04:29:46;;;;;;;;;;;;;;;2.12;100.00;93885.16;10360190;28;2268;-67
2024/02/26 04:34:48;;;;;;;;;;;;;;;2.06;100.00;93887.00;10360975;28;1904;-67
2024/02/26 04:39:50;;;;;;;;;;;;;;;1.99;100.00;93886.50;10357705;28;2012;-68
2024/02/26 04:44:54;;;;;;;;;;;;;;;1.89;100.00;93889.13;10358394;28;1977;-69
2024/02/26 04:49:57;;;;;;;;;;;;;;;1.76;100.00;93885.16;10368527;28;2025;-71
2024/02/26 04:55:00;;;;;;;;;;;;;;;1.66;100.00;93882.53;10355782;28;1937;-63
2024/02/26 05:00:04;;;;;;;;;;;;;;;1.63;100.00;93881.19;10356478;28;2648;-64
2024/02/26 05:05:08;;;;;;;;;;;;;;;1.59;100.00;93879.31;10351597;28;2101;-62
2024/02/26 05:10:11;;;;;;;;;;;;;;;1.65;100.00;93885.41;10351629;28;1914;-63
2024/02/26 05:15:17;;;;;;;;;;;;;;;1.74;100.00;93881.19;10355297;28;2043;-64
2024/02/26 05:20:20;;;;;;;;;;;;;;;1.88;100.00;93876.94;10349141;28;2054;-63
2024/02/26 05:25:24;;;;;;;;;;;;;;;1.93;100.00;93889.41;10347714;28;1960;-64
2024/02/26 05:30:28;;;;;;;;;;;;;;;1.93;100.00;93900.00;10353476;28;2287;-63
2024/02/26 05:35:30;;;;;;;;;;;;;;;1.93;100.00;93900.00;10350817;28;2581;-63
2024/02/26 05:40:33;;;;;;;;;;;;;;;1.97;100.00;93901.06;10352365;28;2051;-64
2024/02/26 05:45:36;;;;;;;;;;;;;;;1.88;100.00;93906.09;10356605;28;2267;-62
2024/02/26 05:50:39;;;;;;;;;;;;;;;1.89;100.00;93897.88;10352591;28;1965;-64
2024/02/26 05:55:41;;;;;;;;;;;;;;;1.85;100.00;93893.41;10349720;28;2201;-63
2024/02/26 06:00:44;;;;;;;;;;;;;;;2.09;100.00;93914.84;10349677;28;1972;-63
2024/02/26 06:05:47;;;;;;;;;;;;;;;2.08;100.00;93911.38;10348628;28;1924;-65
2024/02/26 06:10:50;;;;;;;;;;;;;;;2.22;100.00;93918.81;10349015;28;2303;-65
2024/02/26 06:15:53;;;;;;;;;;;;;;;2.39;100.00;93917.47;10344218;28;2277;-63
2024/02/26 06:20:55;;;;;;;;;;;;;;;2.41;100.00;93933.88;10353679;28;1905;-64
2024/02/26 06:25:58;;;;;;;;;;;;;;;2.64;100.00;93940.50;10357160;28;2692;-66
2024/02/26 06:31:01;;;;;;;;;;;;;;;2.78;100.00;93951.34;10368157;28;2141;-64
2024/02/26 06:36:04;;;;;;;;;;;;;;;2.92;100.00;93956.88;10349126;28;2073;-64
2024/02/26 06:41:07;;;;;;;;;;;;;;;2.93;100.00;93956.63;10352876;28;1997;-65
2024/02/26 06:46:10;;;;;;;;;;;;;;;3.07;100.00;93958.69;10360243;28;2112;-64
2024/02/26 06:51:12;;;;;;;;;;;;;;;3.20;100.00;93972.19;10355444;28;2087;-63
2024/02/26 06:56:15;;;;;;;;;;;;;;;3.27;100.00;93977.22;10356084;28;2042;-62
2024/02/26 07:01:17;;;;;;;;;;;;;;;3.30;100.00;93971.34;10348208;28;2088;-64
2024/02/26 07:06:20;;;;;;;;;;;;;;;3.39;100.00;93976.91;10347443;28;1987;-64
2024/02/26 07:11:24;;;;;;;;;;;;;;;3.49;100.00;93985.59;10332502;28;2021;-63
2024/02/26 07:16:27;;;;;;;;;;;;;;;3.68;100.00;93982.31;10354397;28;2066;-65
2024/02/26 07:21:30;;;;;;;;;;;;;;;3.85;100.00;93990.75;10355091;28;2803;-64
2024/02/26 07:26:35;;;;;;;;;;;;;;;3.69;100.00;93983.91;10360301;28;2076;-63
2024/02/26 07:31:39;;;;;;;;;;;;;;;3.74;100.00;93984.69;10350707;28;2154;-65
2024/02/26 07:36:42;;;;;;;;;;;;;;;3.66;100.00;93995.09;10350503;28;2000;-66
2024/02/26 07:41:49;;;;;;;;;;;;;;;4.20;100.00;93995.06;10351108;28;2082;-63
2024/02/26 07:46:53;;;;;;;;;;;;;;;4.44;100.00;93987.13;10354879;28;2125;-64
2024/02/26 07:51:57;;;;;;;;;;;;;;;4.44;100.00;93989.00;10353986;28;2050;-63
2024/02/26 07:57:01;;;;;;;;;;;;;;;4.46;100.00;94002.84;10366622;28;2525;-64
2024/02/26 08:02:05;;;;;;;;;;;;;;;4.61;100.00;94011.47;10354791;28;2105;-65
2024/02/26 08:07:08;;;;;;;;;;;;;;;4.90;100.00;94013.38;10351235;28;2370;-66
2024/02/26 08:12:11;;;;;;;;;;;;;;;5.07;100.00;94007.59;10354581;28;2140;-63
2024/02/26 08:17:14;;;;;;;;;;;;;;;5.09;100.00;94002.78;10354154;28;2034;-62
2024/02/26 08:22:17;;;;;;;;;;;;;;;5.14;100.00;94006.19;10349714;28;1999;-63
2024/02/26 08:27:20;;;;;;;;;;;;;;;5.75;100.00;93993.25;10353778;28;2022;-64
2024/02/26 08:32:29;;;;;;;;;;;;;;;6.31;100.00;93992.50;10350624;28;1896;-64
2024/02/26 08:37:32;;;;;;;;;;;;;;;6.19;100.00;93992.94;10345018;28;2052;-66
2024/02/26 08:42:35;;;;;;;;;;;;;;;6.60;100.00;94027.00;10355316;28;2225;-66
2024/02/26 08:47:37;;;;;;;;;;;;;;;7.15;100.00;94027.97;10350824;28;2192;-64
2024/02/26 08:52:40;;;;;;;;;;;;;;;7.51;100.00;94027.34;10354471;28;2117;-65
2024/02/26 08:57:43;;;;;;;;;;;;;;;7.40;100.00;94024.06;10375062;28;1994;-64
2024/02/26 09:02:45;;;;;;;;;;;;;;;7.04;100.00;94022.00;10358076;28;2321;-67
2024/02/26 09:07:49;;;;;;;;;;;;;;;6.46;100.00;94026.97;10360870;28;1977;-70
2024/02/26 09:12:51;;;;;;;;;;;;;;;6.92;100.00;94020.88;10349866;28;1874;-68
2024/02/26 09:17:55;;;;;;;;;;;;;;;7.03;100.00;94015.09;10348534;28;2134;-66
2024/02/26 09:22:58;;;;;;;;;;;;;;;7.41;100.00;94014.16;10356943;28;1925;-64
2024/02/26 09:28:01;;;;;;;;;;;;;;;7.34;100.00;94019.88;10347248;28;2022;-65
2024/02/26 09:33:04;;;;;;;;;;;;;;;6.97;100.00;94018.13;10348564;28;2110;-65
2024/02/26 09:38:08;;;;;;;;;;;;;;;7.11;100.00;94018.16;10365043;28;2763;-65
2024/02/26 09:43:11;;;;;;;;;;;;;;;7.42;100.00;94005.81;10347157;28;2051;-65
2024/02/26 09:48:14;;;;;;;;;;;;;;;7.54;100.00;94019.50;10352006;28;1929;-65
2024/02/26 09:53:20;;;;;;;;;;;;;;;7.74;100.00;94007.59;10351902;28;2269;-64
2024/02/26 09:58:22;;;;;;;;;;;;;;;7.92;100.00;94003.22;10347424;28;2043;-64
2024/02/26 10:03:28;;;;;;;;;;;;;;;7.76;100.00;94004.63;10344689;28;2073;-64
2024/02/26 10:08:33;;;;;;;;;;;;;;;7.96;100.00;93996.19;10360116;28;2000;-63
2024/02/26 10:13:36;;;;;;;;;;;;;;;8.30;100.00;94002.94;10350792;28;2052;-65
2024/02/26 10:18:39;;;;;;;;;;;;;;;8.50;100.00;93996.38;10345698;28;2137;-64
2024/02/26 10:24:00;;;;;;;;;;;;;;;8.47;100.00;94005.03;10350712;28;2079;-65
2024/02/26 10:29:02;;;;;;;;;;;;;;;8.65;100.00;94004.03;10346850;28;2061;-67
2024/02/26 10:34:07;;;;;;;;;;;;;;;9.18;100.00;93988.00;10343842;28;2406;-65
2024/02/26 10:39:10;;;;;;;;;;;;;;;9.29;100.00;93983.16;10345027;28;2309;-74
2024/02/26 10:44:13;;;;;;;;;;;;;;;9.29;100.00;93980.47;10354007;28;1905;-70
2024/02/26 10:49:20;;;;;;;;;;;;;;;9.41;100.00;93982.56;10344816;28;1935;-70
2024/02/26 10:54:24;;;;;;;;;;;;;;;9.64;100.00;93967.19;10346907;28;2039;-66
2024/02/26 10:59:28;;;;;;;;;;;;;;;10.02;100.00;93975.47;10346623;28;2053;-68
2024/02/26 11:04:31;;;;;;;;;;;;;;;10.12;100.00;93991.31;10336242;28;2069;-67
2024/02/26 11:09:34;;;;;;;;;;;;;;;10.33;100.00;94001.47;10340041;28;2049;-64
2024/02/26 11:14:37;;;;;;;;;;;;;;;10.35;100.00;94005.41;10344727;28;2041;-67
2024/02/26 11:19:40;;;;;;;;;;;;;;;10.11;100.00;94011.19;10341460;28;2046;-70
2024/02/26 11:24:43;;;;;;;;;;;;;;;10.13;100.00;94014.34;10351302;28;2061;-65
2024/02/26 11:29:45;;;;;;;;;;;;;;;10.23;100.00;94015.97;10345385;28;2565;-64
2024/02/26 11:34:48;;;;;;;;;;;;;;;10.53;100.00;94019.63;10345688;28;2295;-64
2024/02/26 11:39:52;;;;;;;;;;;;;;;11.38;91.71;94014.47;10352676;28;1960;-64
2024/02/26 11:45:00;;;;;;;;;;;;;;;11.36;89.17;94011.31;10350537;28;2038;-66
2024/02/26 11:50:03;;;;;;;;;;;;;;;11.17;87.24;94009.00;10346633;28;1980;-65
2024/02/26 11:55:09;;;;;;;;;;;;;;;11.26;89.54;93996.31;10350797;28;2030;-66
2024/02/26 12:00:12;;;;;;;;;;;;;;;11.27;87.17;93989.03;10349279;28;2178;-74
2024/02/26 12:05:15;;;;;;;;;;;;;;;11.40;88.28;93993.44;10347252;28;2278;-73
2024/02/26 12:10:18;;;;;;;;;;;;;;;11.56;86.71;93994.47;10344540;28;2706;-68
2024/02/26 12:15:22;;;;;;;;;;;;;;;11.45;84.85;93997.81;10351167;28;2261;-75
2024/02/26 12:20:25;;;;;;;;;;;;;;;11.31;83.02;93981.91;10347928;28;2027;-65
2024/02/26 12:25:28;;;;;;;;;;;;;;;11.15;86.58;93981.63;10362969;28;2188;-67
2024/02/26 12:30:31;;;;;;;;;;;;;;;11.08;82.61;93989.41;10346978;28;1948;-66
2024/02/26 12:35:36;;;;;;;;;;;;;;;11.12;89.27;93994.91;10345425;28;2141;-66
2024/02/26 12:40:38;;;;;;;;;;;;;;;11.21;94.60;94015.31;10346250;28;2042;-66
2024/02/26 12:45:41;;;;;;;;;;;;;;;11.26;100.00;94027.78;10346501;28;2082;-66
2024/02/26 12:50:44;;;;;;;;;;;;;;;10.98;100.00;94025.47;10351638;28;2683;-65
2024/02/26 12:55:47;;;;;;;;;;;;;;;10.96;100.00;94026.91;10353170;28;1987;-66
2024/02/26 13:00:50;;;;;;;;;;;;;;;11.12;100.00;94027.19;10350214;28;2110;-67
2024/02/26 13:05:54;;;;;;;;;;;;;;;11.34;100.00;94041.22;10351234;28;2023;-69
2024/02/26 13:10:57;;;;;;;;;;;;;;;11.05;100.00;94049.97;10348821;28;2314;-65
2024/02/26 13:16:00;;;;;;;;;;;;;;;11.02;89.79;94041.78;10351467;28;2112;-72
2024/02/26 13:21:03;;;;;;;;;;;;;;;11.12;94.96;94038.72;10345348;28;2058;-65
2024/02/26 13:26:06;;;;;;;;;;;;;;;11.00;100.00;94035.91;10353512;28;2279;-66
2024/02/26 13:31:08;;;;;;;;;;;;;;;10.96;79.06;94029.59;10353552;28;1878;-70
2024/02/26 13:36:14;;;;;;;;;;;;;;;11.03;83.05;94035.28;10353272;28;1982;-67
2024/02/26 13:41:18;;;;;;;;;;;;;;;11.17;63.24;94049.31;10354921;28;3158;-65
2024/02/26 13:46:20;;;;;;;;;;;;;;;11.26;61.64;94054.69;10350288;28;2233;-70
2024/02/26 13:51:23;;;;;;;;;;;;;;;11.31;63.64;94052.63;10342459;28;2148;-71
2024/02/26 13:56:26;;;;;;;;;;;;;;;11.38;59.65;94052.91;10352004;28;2050;-65
2024/02/26 14:01:30;;;;;;;;;;;;;;;11.33;59.35;94045.03;10350560;28;2110;-66
2024/02/26 14:06:33;;;;;;;;;;;;;;;11.28;64.64;94057.88;10346883;28;2026;-65
2024/02/26 14:11:36;;;;;;;;;;;;;;;11.33;69.55;94061.19;10345668;28;2148;-66
2024/02/26 14:16:39;;;;;;;;;;;;;;;11.12;72.02;94076.38;10338662;28;2205;-66
2024/02/26 14:21:42;;;;;;;;;;;;;;;11.08;85.29;94080.84;10345315;28;2835;-63
2024/02/26 14:26:45;;;;;;;;;;;;;;;11.33;91.89;94080.00;10356472;28;2031;-65
2024/02/26 14:31:48;;;;;;;;;;;;;;;11.09;93.23;94095.84;10347741;28;2090;-65
2024/02/26 14:36:51;;;;;;;;;;;;;;;10.96;100.00;94099.50;10347933;28;2144;-65
2024/02/26 14:41:57;;;;;;;;;;;;;;;10.93;100.00;94116.25;10346212;28;1857;-65
2024/02/26 14:47:00;;;;;;;;;;;;;;;10.79;100.00;94116.41;10352576;28;2125;-65
2024/02/26 14:52:04;;;;;;;;;;;;;;;10.76;100.00;94123.19;10355919;28;1991;-65
2024/02/26 14:57:07;;;;;;;;;;;;;;;10.39;100.00;94126.44;10352002;28;2006;-70
2024/02/26 15:02:10;;;;;;;;;;;;;;;10.29;100.00;94130.97;10355155;28;1978;-65
2024/02/26 15:07:13;;;;;;;;;;;;;;;10.15;100.00;94132.19;10352751;28;2033;-65
2024/02/26 15:12:20;;;;;;;;;;;;;;;9.95;100.00;94131.63;10358933;28;2029;-72
2024/02/26 15:17:28;;;;;;;;;;;;;;;9.84;100.00;94141.03;10368731;28;2562;-71
2024/02/26 15:22:31;;;;;;;;;;;;;;;9.81;100.00;94148.94;10357026;28;2128;-65
2024/02/26 15:27:35;;;;;;;;;;;;;;;9.77;100.00;94148.75;10353894;28;2106;-66
2024/02/26 15:32:38;;;;;;;;;;;;;;;9.72;100.00;94160.38;10360126;28;2081;-64
2024/02/26 15:37:41;;;;;;;;;;;;;;;9.72;100.00;94157.69;10356236;28;2046;-67
2024/02/26 15:42:45;;;;;;;;;;;;;;;9.72;100.00;94165.75;10351172;28;2107;-65
2024/02/26 15:47:50;;;;;;;;;;;;;;;9.62;100.00;94174.06;10363148;28;2166;-65
2024/02/26 15:52:54;;;;;;;;;;;;;;;9.55;100.00;94176.41;10365249;28;2105;-65
2024/02/26 15:57:58;;;;;;;;;;;;;;;9.54;100.00;94188.19;10363522;28;1983;-65
2024/02/26 16:03:03;;;;;;;;;;;;;;;9.54;100.00;94180.16;10353270;28;2428;-66
2024/02/26 16:08:06;;;;;;;;;;;;;;;9.46;100.00;94183.56;10352581;28;2074;-65
2024/02/26 16:13:11;;;;;;;;;;;;;;;9.48;100.00;94176.81;10353173;28;2005;-64
2024/02/26 16:18:13;;;;;;;;;;;;;;;9.43;100.00;94173.47;10348405;28;2117;-64
2024/02/26 16:23:16;;;;;;;;;;;;;;;9.35;100.00;94171.50;10351423;28;1982;-66
2024/02/26 16:28:24;;;;;;;;;;;;;;;9.30;100.00;94168.97;10351145;28;2054;-66
2024/02/26 16:33:28;;;;;;;;;;;;;;;9.29;100.00;94168.16;10350477;28;2050;-67
2024/02/26 16:38:31;;;;;;;;;;;;;;;9.24;100.00;94159.44;10356057;28;2094;-66
2024/02/26 16:43:36;;;;;;;;;;;;;;;9.24;100.00;94154.09;10353101;28;2264;-66
2024/02/26 16:48:38;;;;;;;;;;;;;;;9.14;100.00;94161.25;10355626;28;2109;-69
2024/02/26 16:53:42;;;;;;;;;;;;;;;9.11;100.00;94161.88;10347580;28;2178;-70
2024/02/26 16:58:45;;;;;;;;;;;;;;;9.02;100.00;94168.25;10353427;28;2142;-70
2024/02/26 17:03:48;;;;;;;;;;;;;;;8.97;100.00;94176.38;10349802;28;2002;-66
2024/02/26 17:08:52;;;;;;;;;;;;;;;8.90;100.00;94187.53;10352140;28;2033;-65
2024/02/26 17:13:55;;;;;;;;;;;;;;;8.79;100.00;94191.53;10354591;28;1929;-65
2024/02/26 17:19:00;;;;;;;;;;;;;;;8.77;100.00;94199.84;10349966;28;2138;-66
2024/02/26 17:24:03;;;;;;;;;;;;;;;8.75;100.00;94210.09;10349705;28;1988;-66
2024/02/26 17:29:05;;;;;;;;;;;;;;;8.63;100.00;94205.22;10350189;28;2547;-65
2024/02/26 17:34:08;;;;;;;;;;;;;;;8.67;100.00;94221.50;10352072;28;2028;-66
2024/02/26 17:39:11;;;;;;;;;;;;;;;8.59;100.00;94225.69;10353869;28;2168;-65
2024/02/26 17:44:15;;;;;;;;;;;;;;;8.59;100.00;94246.31;10350315;28;2070;-66
2024/02/26 17:49:19;;;;;;;;;;;;;;;8.52;100.00;94238.66;10364169;28;2035;-65
2024/02/26 17:54:21;;;;;;;;;;;;;;;8.45;100.00;94243.63;10346023;28;2078;-65
2024/02/26 17:59:24;;;;;;;;;;;;;;;8.42;100.00;94257.63;10349334;28;2216;-64
2024/02/26 18:04:30;;;;;;;;;;;;;;;8.43;100.00;94261.88;10346761;28;2121;-67
2024/02/26 18:09:33;;;;;;;;;;;;;;;8.36;100.00;94269.50;10350158;28;1907;-64
2024/02/26 18:14:35;;;;;;;;;;;;;;;8.24;100.00;94271.84;10357156;28;2109;-67
2024/02/26 18:19:41;;;;;;;;;;;;;;;8.20;100.00;94276.19;10348998;28;2379;-64
2024/02/26 18:24:44;;;;;;;;;;;;;;;8.10;100.00;94287.88;10358269;28;1976;-65
2024/02/26 18:29:46;;;;;;;;;;;;;;;8.03;100.00;94288.25;10352124;28;2045;-68
2024/02/26 18:34:49;;;;;;;;;;;;;;;7.99;100.00;94299.84;10356647;28;1868;-65
2024/02/26 18:39:53;;;;;;;;;;;;;;;7.91;100.00;94290.59;10359970;28;2062;-65
2024/02/26 18:44:59;;;;;;;;;;;;;;;7.83;100.00;94296.63;10359964;28;2058;-65
2024/02/26 18:50:03;;;;;;;;;;;;;;;7.80;100.00;94310.56;10354463;28;2026;-65
2024/02/26 18:55:06;;;;;;;;;;;;;;;7.74;100.00;94301.81;10357459;28;1992;-67
2024/02/26 19:00:12;;;;;;;;;;;;;;;7.68;100.00;94304.88;10360183;28;2399;-66
2024/02/26 19:05:15;;;;;;;;;;;;;;;7.64;100.00;94303.88;10350408;28;2050;-65
2024/02/26 19:10:17;;;;;;;;;;;;;;;7.54;100.00;94300.25;10356611;28;2045;-71
2024/02/26 19:15:20;;;;;;;;;;;;;;;7.46;100.00;94297.44;10355630;28;2141;-65
2024/02/26 19:20:23;;;;;;;;;;;;;;;7.42;100.00;94297.22;10348419;28;1960;-68
2024/02/26 19:25:26;;;;;;;;;;;;;;;7.29;100.00;94316.66;10357501;28;1995;-64
2024/02/26 19:30:29;;;;;;;;;;;;;;;7.23;100.00;94323.16;10353646;28;1978;-65
2024/02/26 19:35:33;;;;;;;;;;;;;;;7.13;100.00;94339.34;10354710;28;1961;-65
2024/02/26 19:40:36;;;;;;;;;;;;;;;7.07;100.00;94340.47;10358193;28;2488;-66
2024/02/26 19:45:39;;;;;;;;;;;;;;;6.95;100.00;94344.34;10350226;28;2280;-64
2024/02/26 19:50:44;;;;;;;;;;;;;;;6.87;100.00;94352.16;10352757;28;2042;-64
2024/02/26 19:55:47;;;;;;;;;;;;;;;6.74;100.00;94370.50;10353880;28;1901;-63
2024/02/26 20:00:49;;;;;;;;;;;;;;;6.67;100.00;94372.69;10354648;28;2227;-66
2024/02/26 20:05:55;;;;;;;;;;;;;;;6.60;100.00;94385.56;10353896;28;2001;-66
2024/02/26 20:10:57;;;;;;;;;;;;;;;6.55;100.00;94390.16;10355297;28;2335;-66
2024/02/26 20:16:00;;;;;;;;;;;;;;;6.49;100.00;94392.91;10358197;28;1964;-68
2024/02/26 20:21:02;;;;;;;;;;;;;;;6.35;100.00;94389.25;10348127;28;2155;-67
2024/02/26 20:26:08;;;;;;;;;;;;;;;6.28;100.00;94378.13;10355998;28;2058;-66
2024/02/26 20:31:11;;;;;;;;;;;;;;;6.16;100.00;94383.03;10371807;28;2122;-67
2024/02/26 20:36:31;;;;;;;;;;;;;;;6.04;100.00;94374.59;10355722;28;2101;-66
2024/02/26 20:41:35;;;;;;;;;;;;;;;5.99;100.00;94385.31;10354093;28;2062;-65
2024/02/26 20:46:40;;;;;;;;;;;;;;;5.90;100.00;94393.06;10355348;28;2137;-66
2024/02/26 20:51:44;;;;;;;;;;;;;;;5.85;100.00;94398.44;10361308;28;1973;-67
2024/02/26 20:56:47;;;;;;;;;;;;;;;5.68;100.00;94409.50;10353570;28;2072;-66
2024/02/26 21:01:50;;;;;;;;;;;;;;;5.63;100.00;94409.50;10354787;28;2077;-65
2024/02/26 21:06:53;;;;;;;;;;;;;;;5.67;100.00;94410.56;10357613;28;1878;-66
2024/02/26 21:11:56;;;;;;;;;;;;;;;5.68;100.00;94418.28;10356306;28;2040;-68
2024/02/26 21:16:59;;;;;;;;;;;;;;;5.62;100.00;94435.38;10355082;28;2803;-67
2024/02/26 21:22:01;;;;;;;;;;;;;;;5.55;100.00;94429.53;10369842;28;2033;-67
2024/02/26 21:27:04;;;;;;;;;;;;;;;5.38;100.00;94440.53;10352392;28;2136;-66
2024/02/26 21:32:07;;;;;;;;;;;;;;;5.31;100.00;94448.03;10359753;28;1949;-66
2024/02/26 21:37:11;;;;;;;;;;;;;;;5.29;100.00;94446.72;10350441;28;2069;-65
2024/02/26 21:42:13;;;;;;;;;;;;;;;5.22;100.00;94438.22;10357479;28;1977;-65
2024/02/26 21:47:16;;;;;;;;;;;;;;;5.13;100.00;94430.00;10349891;28;2168;-66
2024/02/26 21:52:19;;;;;;;;;;;;;;;5.08;100.00;94441.44;10353793;28;2101;-66
2024/02/26 21:57:24;;;;;;;;;;;;;;;4.98;100.00;94444.16;10357461;28;1932;-66
2024/02/26 22:02:26;;;;;;;;;;;;;;;4.91;100.00;94459.63;10351051;28;2722;-66
2024/02/26 22:07:29;;;;;;;;;;;;;;;4.85;100.00;94458.84;10352388;28;1904;-66
2024/02/26 22:12:32;;;;;;;;;;;;;;;4.76;100.00;94476.41;10359871;28;2049;-66
2024/02/26 22:17:34;;;;;;;;;;;;;;;4.67;100.00;94482.56;10351702;28;1982;-66
2024/02/26 22:22:39;;;;;;;;;;;;;;;4.66;100.00;94503.06;10347468;28;1999;-66
2024/02/26 22:27:41;;;;;;;;;;;;;;;4.62;100.00;94496.66;10351371;28;1926;-66
2024/02/26 22:32:44;;;;;;;;;;;;;;;4.54;100.00;94507.84;10351842;28;2074;-66
2024/02/26 22:37:47;;;;;;;;;;;;;;;4.65;100.00;94522.75;10350004;28;2460;-65
2024/02/26 22:42:55;;;;;;;;;;;;;;;4.64;100.00;94531.78;10351399;28;1988;-65
2024/02/26 22:47:58;;;;;;;;;;;;;;;4.64;100.00;94520.34;10347590;28;2645;-65
2024/02/26 22:53:00;;;;;;;;;;;;;;;4.59;100.00;94526.47;10353840;28;2077;-64
2024/02/26 22:58:04;;;;;;;;;;;;;;;4.53;100.00;94538.19;10349427;28;2085;-65
2024/02/26 23:03:07;;;;;;;;;;;;;;;4.43;100.00;94536.31;10348684;28;2081;-67
2024/02/26 23:08:11;;;;;;;;;;;;;;;4.42;100.00;94565.84;10356628;28;2057;-67
2024/02/26 23:13:17;;;;;;;;;;;;;;;4.36;100.00;94572.22;10353731;28;2017;-68
2024/02/26 23:18:20;;;;;;;;;;;;;;;4.37;100.00;94561.31;10356176;28;2145;-66
2024/02/26 23:23:23;;;;;;;;;;;;;;;4.34;100.00;94570.63;10355057;28;2050;-75
2024/02/26 23:28:26;;;;;;;;;;;;;;;4.40;100.00;94587.41;10355297;28;2102;-72
2024/02/26 23:33:29;;;;;;;;;;;;;;;4.37;100.00;94590.56;10358732;28;2454;-68
2024/02/26 23:38:34;;;;;;;;;;;;;;;4.28;100.00;94577.00;10358350;28;1905;-70
2024/02/26 23:43:36;;;;;;;;;;;;;;;4.18;100.00;94576.97;10360970;28;2114;-64
2024/02/26 23:48:39;;;;;;;;;;;;;;;4.17;100.00;94580.69;10348551;28;2053;-71
2024/02/26 23:53:42;;;;;;;;;;;;;;;4.17;100.00;94596.66;10353555;28;2355;-65
2024/02/26 23:58:44;;;;;;;;;;;;;;;4.09;100.00;94607.81;10370002;28;2133;-67
